Time;durP1;ratioP1;P1;durP2;ratioP2;P2;SDS_P1;SDS_P2;PMS_P1;PMS_P2;Temp;Humidity;BMP_temperature;BMP_pressure;BME280_temperature;BME280_humidity;BME280_pressure;Samples;Min_cycle;Max_cycle;Signal;HPM_P1;HPM_P2
2022/03/30 00:00:48;;;;;;;14.90;7.78;;;;;;;10.07;96.53;97256.41;5057625;28;20025;-67
2022/03/30 00:03:13;;;;;;;19.02;9.35;;;;;;;9.99;96.94;97252.28;5047141;28;20076;-67
2022/03/30 00:05:39;;;;;;;19.90;8.82;;;;;;;9.93;96.38;97255.16;5048322;28;20025;-67
2022/03/30 00:08:05;;;;;;;18.08;9.38;;;;;;;9.90;96.00;97260.56;5066691;28;20025;-67
2022/03/30 00:10:32;;;;;;;27.63;10.20;;;;;;;9.82;96.66;97255.59;5060007;28;20056;-67
2022/03/30 00:12:58;;;;;;;22.42;9.82;;;;;;;9.86;96.79;97256.31;5046861;28;20025;-67
2022/03/30 00:15:24;;;;;;;25.13;10.10;;;;;;;9.85;97.84;97249.34;5057882;28;20039;-67
2022/03/30 00:17:50;;;;;;;25.45;10.23;;;;;;;9.77;97.86;97246.16;5066522;28;20029;-67
2022/03/30 00:20:16;;;;;;;22.23;10.45;;;;;;;9.77;98.08;97251.41;5065939;28;20031;-67
2022/03/30 00:22:41;;;;;;;27.63;9.85;;;;;;;9.78;98.20;97242.63;5052643;28;20272;-67
2022/03/30 00:25:09;;;;;;;18.45;9.73;;;;;;;9.77;97.69;97243.53;5046653;28;20108;-67
2022/03/30 00:27:35;;;;;;;22.45;10.13;;;;;;;9.68;99.18;97230.75;5046672;28;20025;-67
2022/03/30 00:30:01;;;;;;;23.42;10.98;;;;;;;9.69;99.44;97227.22;5060094;28;20063;-67
2022/03/30 00:32:26;;;;;;;22.98;10.45;;;;;;;9.69;99.72;97229.84;5064198;28;20040;-67
2022/03/30 00:34:52;;;;;;;20.08;10.63;;;;;;;9.64;100.00;97226.50;5066126;28;20056;-67
2022/03/30 00:37:17;;;;;;;26.05;10.52;;;;;;;9.63;100.00;97222.19;5065875;28;20021;-67
2022/03/30 00:39:42;;;;;;;25.45;10.27;;;;;;;9.64;100.00;97223.88;5065859;28;20032;-67
2022/03/30 00:42:20;;;;;;;17.85;9.40;;;;;;;9.57;100.00;97223.28;5053387;28;20256;-67
2022/03/30 00:44:49;;;;;;;23.63;9.70;;;;;;;9.49;100.00;97214.00;5063721;28;20086;-67
2022/03/30 00:47:16;;;;;;;23.02;10.27;;;;;;;9.51;100.00;97220.00;5065698;28;20051;-67
2022/03/30 00:49:42;;;;;;;26.42;10.20;;;;;;;9.52;100.00;97213.88;5065915;28;20080;-67
2022/03/30 00:52:08;;;;;;;23.00;9.82;;;;;;;9.52;99.62;97209.44;5053387;28;20022;-67
2022/03/30 00:54:34;;;;;;;20.58;9.40;;;;;;;9.52;100.00;97211.25;5046128;28;20026;-67
2022/03/30 00:57:01;;;;;;;19.20;9.98;;;;;;;9.53;100.00;97207.69;5047665;28;20396;-67
2022/03/30 00:59:26;;;;;;;23.02;10.13;;;;;;;9.56;100.00;97207.59;5065471;28;20029;-67
2022/03/30 01:01:52;;;;;;;20.60;9.52;;;;;;;9.52;100.00;97204.19;5057638;28;20017;-67
2022/03/30 01:04:17;;;;;;;30.15;10.48;;;;;;;9.56;100.00;97197.06;5064900;28;20021;-67
2022/03/30 01:06:43;;;;;;;16.15;9.90;;;;;;;9.54;100.00;97196.25;5065364;28;20029;-67
2022/03/30 01:09:08;;;;;;;20.73;10.52;;;;;;;9.48;100.00;97196.50;5065051;28;20317;-67
2022/03/30 01:11:34;;;;;;;17.52;9.40;;;;;;;9.51;100.00;97191.13;5060993;28;20025;-67
2022/03/30 01:13:59;;;;;;;24.55;10.00;;;;;;;9.37;100.00;97177.69;5061131;28;20063;-67
2022/03/30 01:16:25;;;;;;;20.45;8.75;;;;;;;9.39;100.00;97187.19;5064889;28;20271;-67
2022/03/30 01:19:02;;;;;;;21.15;9.02;;;;;;;9.40;100.00;97182.81;5065090;28;20021;-67
2022/03/30 01:21:28;;;;;;;21.73;9.98;;;;;;;9.39;100.00;97181.09;5065105;28;20024;-67
2022/03/30 01:23:53;;;;;;;16.50;8.82;;;;;;;9.40;100.00;97172.31;5065280;28;20308;-67
2022/03/30 01:26:19;;;;;;;20.80;9.07;;;;;;;9.31;100.00;97156.91;5056714;28;20100;-67
2022/03/30 01:28:44;;;;;;;16.90;9.15;;;;;;;9.30;100.00;97149.94;5064645;28;20059;-67
2022/03/30 01:33:54;;;;;;;20.35;10.40;;;;;;;9.33;100.00;97157.72;5053695;28;20110;-67
2022/03/30 01:36:22;;;;;;;18.35;9.48;;;;;;;9.30;100.00;97147.31;5044902;28;20026;-67
2022/03/30 01:38:47;;;;;;;17.45;10.02;;;;;;;9.23;100.00;97132.69;5047033;28;20052;-67
2022/03/30 01:41:13;;;;;;;22.85;10.35;;;;;;;9.30;100.00;97126.31;5063364;28;20028;-67
2022/03/30 01:43:38;;;;;;;21.65;10.13;;;;;;;9.37;100.00;97126.03;5064686;28;20043;-67
2022/03/30 01:46:04;;;;;;;25.35;11.30;;;;;;;9.27;100.00;97118.56;5064294;28;20021;-67
2022/03/30 01:48:29;;;;;;;20.45;10.60;;;;;;;9.23;100.00;97122.19;5064558;28;20020;-67
2022/03/30 01:50:55;;;;;;;18.50;9.05;;;;;;;9.26;100.00;97120.31;5057879;28;20051;-67
2022/03/30 01:53:20;;;;;;;24.67;11.50;;;;;;;9.21;100.00;97119.63;5046157;28;20335;-67
2022/03/30 01:55:46;;;;;;;24.67;10.40;;;;;;;9.20;100.00;97123.16;5059704;28;20020;-67
2022/03/30 01:58:11;;;;;;;34.17;11.50;;;;;;;9.28;100.00;97130.75;5060797;28;20013;-67
2022/03/30 02:00:37;;;;;;;30.70;10.93;;;;;;;9.23;100.00;97119.56;5044903;28;20328;-67
2022/03/30 02:03:03;;;;;;;30.70;10.60;;;;;;;9.21;100.00;97113.53;5049804;28;20300;-67
2022/03/30 02:05:31;;;;;;;22.40;10.32;;;;;;;9.20;100.00;97117.09;5064768;28;20021;-67
2022/03/30 02:07:56;;;;;;;21.25;9.95;;;;;;;9.20;100.00;97106.59;5064693;28;20028;-67
2022/03/30 02:10:22;;;;;;;32.03;10.70;;;;;;;9.19;100.00;97104.84;5054266;28;20379;-67
2022/03/30 02:12:48;;;;;;;24.02;11.32;;;;;;;9.14;100.00;97104.19;5063484;28;20313;-67
2022/03/30 02:15:13;;;;;;;22.08;10.77;;;;;;;9.17;100.00;97111.97;5064056;28;20216;-67
2022/03/30 02:17:40;;;;;;;22.13;9.63;;;;;;;9.19;100.00;97107.47;5064005;28;20028;-67
2022/03/30 02:20:07;;;;;;;18.90;9.80;;;;;;;9.17;100.00;97106.72;5063918;28;20048;-67
2022/03/30 02:22:32;;;;;;;18.88;9.75;;;;;;;9.09;100.00;97103.50;5054991;28;20370;-67
2022/03/30 02:24:58;;;;;;;22.00;10.57;;;;;;;9.05;100.00;97101.91;5056265;28;20044;-67
2022/03/30 02:27:23;;;;;;;21.40;10.57;;;;;;;9.05;100.00;97101.91;5063825;28;20212;-67
2022/03/30 02:29:51;;;;;;;19.77;10.10;;;;;;;9.04;100.00;97105.44;5063840;28;20027;-67
2022/03/30 02:32:17;;;;;;;14.93;9.20;;;;;;;9.07;100.00;97102.69;5063320;28;20041;-67
2022/03/30 02:34:43;;;;;;;24.30;10.25;;;;;;;9.04;100.00;97095.78;5051254;28;20060;-67
2022/03/30 02:37:09;;;;;;;21.48;10.38;;;;;;;9.02;100.00;97097.66;5044198;28;20043;-67
2022/03/30 02:39:35;;;;;;;19.33;9.95;;;;;;;8.95;100.00;97095.31;5054454;28;20260;-67
2022/03/30 02:42:01;;;;;;;19.00;10.65;;;;;;;8.92;100.00;97084.91;5063612;28;20084;-67
2022/03/30 02:44:27;;;;;;;15.60;9.77;;;;;;;8.87;100.00;97084.22;5063240;28;20208;-67
2022/03/30 02:46:54;;;;;;;19.48;10.77;;;;;;;8.92;100.00;97084.91;5049972;28;20027;-67
2022/03/30 02:49:20;;;;;;;17.05;8.93;;;;;;;8.94;100.00;97089.19;5043300;28;20025;-67
2022/03/30 02:51:45;;;;;;;22.30;9.80;;;;;;;8.85;100.00;97088.69;5044097;28;20384;-67
2022/03/30 02:54:11;;;;;;;19.15;9.43;;;;;;;8.81;100.00;97077.44;5058812;28;20020;-67
2022/03/30 02:56:36;;;;;;;16.05;9.15;;;;;;;8.78;100.00;97077.56;5062040;28;20020;-67
2022/03/30 02:59:02;;;;;;;19.13;8.68;;;;;;;8.75;100.00;97078.53;5063148;28;20021;-67
2022/03/30 03:01:28;;;;;;;17.08;9.05;;;;;;;8.75;100.00;97073.28;5056187;28;20372;-67
2022/03/30 03:03:53;;;;;;;33.72;10.13;;;;;;;8.76;100.00;97074.13;5043928;28;20024;-67
2022/03/30 03:06:18;;;;;;;21.38;9.80;;;;;;;8.74;100.00;97071.56;5044036;28;20021;-67
2022/03/30 03:08:44;;;;;;;19.05;9.63;;;;;;;8.69;100.00;97068.25;5059900;28;20058;-67
2022/03/30 03:11:10;;;;;;;19.45;9.05;;;;;;;8.67;100.00;97070.06;5043999;28;20022;-67
2022/03/30 03:13:36;;;;;;;21.40;9.65;;;;;;;8.68;100.00;97066.53;5043773;28;20017;-67
2022/03/30 03:16:01;;;;;;;20.83;10.20;;;;;;;8.68;100.00;97060.44;5043836;28;20340;-67
2022/03/30 03:18:27;;;;;;;21.25;9.95;;;;;;;8.68;100.00;97065.69;5043792;28;20017;-67
2022/03/30 03:20:52;;;;;;;21.55;10.27;;;;;;;8.70;100.00;97059.47;5043783;28;20050;-67
2022/03/30 03:23:18;;;;;;;19.80;10.82;;;;;;;8.67;100.00;97064.81;5061667;28;20013;-67
2022/03/30 03:25:44;;;;;;;19.88;9.52;;;;;;;8.69;100.00;97063.00;5063122;28;20320;-67
2022/03/30 03:28:12;;;;;;;23.88;10.90;;;;;;;8.69;100.00;97056.91;5063016;28;20312;-67
2022/03/30 03:30:38;;;;;;;17.33;9.90;;;;;;;8.70;100.00;97053.34;5043703;28;20190;-67
2022/03/30 03:33:05;;;;;;;24.95;10.18;;;;;;;8.64;100.00;97049.19;5044618;28;20080;-67
2022/03/30 03:35:30;;;;;;;22.35;9.50;;;;;;;8.65;100.00;97050.94;5044732;28;20098;-67
2022/03/30 03:37:57;;;;;;;21.13;10.25;;;;;;;8.67;100.00;97049.09;5063041;28;20336;-67
2022/03/30 03:40:22;;;;;;;18.17;9.38;;;;;;;8.69;100.00;97052.53;5055811;28;20320;-67
2022/03/30 03:42:48;;;;;;;18.10;9.30;;;;;;;8.70;100.00;97051.59;5043581;28;20031;-67
2022/03/30 03:45:14;;;;;;;24.35;10.18;;;;;;;8.74;100.00;97052.34;5051896;28;20029;-67
2022/03/30 03:47:41;;;;;;;20.15;9.98;;;;;;;8.77;100.00;97045.22;5058777;28;20028;-67
2022/03/30 03:50:07;;;;;;;20.38;9.63;;;;;;;8.77;100.00;97045.22;5046293;28;20295;-67
2022/03/30 03:52:32;;;;;;;20.00;9.32;;;;;;;8.72;100.00;97047.16;5062801;28;20025;-67
2022/03/30 03:54:58;;;;;;;21.35;9.88;;;;;;;8.72;100.00;97041.91;5062525;28;20284;-67
2022/03/30 03:57:23;;;;;;;17.98;9.45;;;;;;;8.68;100.00;97040.31;5059382;28;20017;-66
2022/03/30 03:59:49;;;;;;;21.67;9.13;;;;;;;8.65;100.00;97035.19;5046437;28;20020;-65
2022/03/30 04:02:14;;;;;;;18.83;8.23;;;;;;;8.62;100.00;97032.69;5047426;28;20020;-67
2022/03/30 04:04:40;;;;;;;23.38;10.75;;;;;;;8.65;100.00;97034.34;5047391;28;20343;-68
2022/03/30 04:07:05;;;;;;;22.02;9.82;;;;;;;8.64;100.00;97028.22;5066725;28;20020;-69
2022/03/30 04:09:31;;;;;;;25.60;9.75;;;;;;;8.59;100.00;97027.56;5065085;28;20216;-64
2022/03/30 04:11:57;;;;;;;20.90;9.77;;;;;;;8.72;100.00;97022.69;5064783;28;20025;-65
2022/03/30 04:14:23;;;;;;;20.52;9.95;;;;;;;8.70;100.00;97022.75;5047998;28;20213;-67
2022/03/30 04:16:49;;;;;;;22.15;9.80;;;;;;;8.75;100.00;97018.22;5046874;28;20025;-67
2022/03/30 04:19:17;;;;;;;17.20;9.10;;;;;;;8.83;100.00;97020.53;5049024;28;20028;-66
2022/03/30 04:21:43;;;;;;;29.73;9.93;;;;;;;8.89;100.00;97012.41;5066182;28;20017;-66
2022/03/30 04:24:09;;;;;;;19.08;8.90;;;;;;;8.93;100.00;97013.16;5062808;28;20024;-66
2022/03/30 04:26:35;;;;;;;22.27;8.07;;;;;;;9.12;100.00;97008.91;5065357;28;20020;-66
2022/03/30 04:29:00;;;;;;;24.13;9.55;;;;;;;9.08;100.00;97012.56;5066055;28;20082;-66
2022/03/30 04:31:26;;;;;;;20.08;8.23;;;;;;;9.05;100.00;97017.94;5049367;28;20037;-66
2022/03/30 04:33:53;;;;;;;17.50;8.57;;;;;;;9.22;100.00;97007.63;5046540;28;20039;-66
2022/03/30 04:36:19;;;;;;;29.35;9.23;;;;;;;9.29;100.00;97009.09;5046462;28;20025;-66
2022/03/30 04:38:44;;;;;;;19.65;8.57;;;;;;;9.38;100.00;97006.97;5046466;28;20049;-66
2022/03/30 04:41:10;;;;;;;19.23;8.30;;;;;;;9.39;100.00;96989.41;5046403;28;20032;-66
2022/03/30 04:43:35;;;;;;;22.23;8.25;;;;;;;9.41;100.00;96995.47;5046361;28;20021;-66
2022/03/30 04:46:00;;;;;;;26.48;8.20;;;;;;;9.44;100.00;96996.22;5046327;28;20339;-66
2022/03/30 04:48:26;;;;;;;20.33;7.93;;;;;;;9.52;99.92;96993.28;5046251;28;20029;-66
2022/03/30 04:50:52;;;;;;;23.55;7.60;;;;;;;9.55;100.00;96993.16;5046227;28;20028;-66
2022/03/30 04:53:18;;;;;;;20.67;7.18;;;;;;;9.61;99.86;96993.72;5046401;28;20132;-66
2022/03/30 04:55:44;;;;;;;19.05;7.40;;;;;;;9.62;99.31;96989.34;5046138;28;20033;-67
2022/03/30 04:58:09;;;;;;;16.92;6.75;;;;;;;9.64;99.74;97000.63;5046365;28;20029;-67
2022/03/30 05:00:35;;;;;;;15.52;7.07;;;;;;;9.64;99.32;96992.75;5046334;28;20222;-67
2022/03/30 05:03:00;;;;;;;21.17;7.15;;;;;;;9.65;100.00;96995.31;5046066;28;20303;-67
2022/03/30 05:05:27;;;;;;;15.85;6.30;;;;;;;9.65;100.00;96989.22;5045996;28;20026;-67
2022/03/30 05:07:54;;;;;;;18.10;7.15;;;;;;;9.65;100.00;96990.06;5046024;28;20284;-67
2022/03/30 05:10:20;;;;;;;21.08;7.63;;;;;;;9.66;100.00;96996.16;5045647;28;20084;-67
2022/03/30 05:12:45;;;;;;;18.65;6.30;;;;;;;9.69;100.00;96990.78;5045036;28;20332;-67
2022/03/30 05:15:11;;;;;;;19.02;7.63;;;;;;;9.70;100.00;96993.34;5045798;28;20088;-67
2022/03/30 05:17:41;;;;;;;25.52;7.30;;;;;;;9.72;100.00;96995.91;5045750;28;20029;-67
2022/03/30 05:20:07;;;;;;;18.58;6.88;;;;;;;9.74;100.00;96994.06;5045988;28;20221;-67
2022/03/30 05:22:33;;;;;;;25.85;7.75;;;;;;;9.76;100.00;96992.25;5045630;28;20267;-67
2022/03/30 05:25:00;;;;;;;18.05;7.85;;;;;;;9.75;100.00;96996.63;5045592;28;20021;-67
2022/03/30 05:27:26;;;;;;;17.95;6.40;;;;;;;9.81;100.00;96992.91;5043990;28;20080;-67
2022/03/30 05:29:51;;;;;;;16.20;7.05;;;;;;;9.82;100.00;96997.25;5045322;28;20071;-67
2022/03/30 05:32:16;;;;;;;23.52;8.23;;;;;;;9.83;100.00;96988.44;5044331;28;20339;-67
2022/03/30 05:34:42;;;;;;;20.35;8.70;;;;;;;9.81;100.00;96992.91;5045341;28;20104;-67
2022/03/30 05:37:08;;;;;;;15.65;6.68;;;;;;;9.82;100.00;96986.72;5045372;28;20089;-67
2022/03/30 05:39:35;;;;;;;34.40;8.88;;;;;;;9.80;100.00;96988.56;5045291;28;20089;-67
2022/03/30 05:42:01;;;;;;;32.58;7.75;;;;;;;9.78;100.00;96993.03;5045507;28;20084;-67
2022/03/30 05:44:26;;;;;;;13.27;6.82;;;;;;;9.78;100.00;96995.66;5045278;28;20313;-67
2022/03/30 05:46:52;;;;;;;19.83;8.63;;;;;;;9.73;100.00;96992.38;5045221;28;20029;-67
2022/03/30 05:49:18;;;;;;;15.40;7.00;;;;;;;9.78;100.00;96987.78;5045139;28;20258;-67
2022/03/30 05:51:44;;;;;;;21.98;8.00;;;;;;;9.76;100.00;96997.50;5045073;28;20021;-67
2022/03/30 05:54:09;;;;;;;20.73;7.28;;;;;;;9.79;100.00;96992.09;5044937;28;20021;-67
2022/03/30 05:59:19;;;;;;;18.48;6.85;;;;;;;9.82;100.00;96991.97;5045056;28;20029;-67
2022/03/30 06:01:44;;;;;;;16.05;7.60;;;;;;;9.81;100.00;96992.91;5044882;28;20025;-67
2022/03/30 06:04:10;;;;;;;35.75;8.43;;;;;;;9.79;100.00;96986.84;5044817;28;20029;-67
2022/03/30 06:06:35;;;;;;;26.73;7.68;;;;;;;9.79;100.00;96992.09;5044811;28;20044;-67
2022/03/30 06:09:06;;;;;;;25.45;7.88;;;;;;;9.78;100.00;96985.16;5044785;28;20071;-67
2022/03/30 06:11:31;;;;;;;19.23;8.13;;;;;;;9.81;100.00;96990.28;5044928;28;20067;-67
2022/03/30 06:13:58;;;;;;;16.80;7.78;;;;;;;9.84;100.00;96995.41;5044572;28;20017;-67
2022/03/30 06:16:24;;;;;;;14.15;7.10;;;;;;;9.80;100.00;96993.81;5044616;28;20025;-67
2022/03/30 06:18:50;;;;;;;31.15;9.38;;;;;;;9.71;100.00;96988.97;5044536;28;20023;-67
2022/03/30 06:21:16;;;;;;;23.27;7.82;;;;;;;9.74;100.00;96994.94;5044805;28;20093;-67
2022/03/30 06:23:42;;;;;;;19.23;8.00;;;;;;;9.76;100.00;96992.25;5044381;28;20340;-67
2022/03/30 06:26:08;;;;;;;17.70;7.47;;;;;;;9.76;100.00;96998.34;5044457;28;20081;-67
2022/03/30 06:28:33;;;;;;;18.45;8.88;;;;;;;9.77;100.00;96996.56;5044424;28;20312;-67
2022/03/30 06:31:00;;;;;;;30.38;8.20;;;;;;;9.79;100.00;96997.38;5044237;28;20029;-67
2022/03/30 06:33:26;;;;;;;19.92;7.88;;;;;;;9.79;100.00;96997.38;5044537;28;20047;-67
2022/03/30 06:35:51;;;;;;;24.40;7.65;;;;;;;9.81;100.00;97000.78;5044315;28;20021;-67
2022/03/30 06:38:17;;;;;;;19.25;8.25;;;;;;;9.80;100.00;96999.94;5044248;28;20021;-67
2022/03/30 06:40:46;;;;;;;22.00;8.43;;;;;;;9.75;100.00;96996.63;5043031;28;20400;-67
2022/03/30 06:43:12;;;;;;;30.27;8.63;;;;;;;9.74;100.00;96994.06;5045905;28;20027;-67
2022/03/30 06:45:38;;;;;;;34.03;8.68;;;;;;;9.77;100.00;96999.19;5043205;28;20021;-66
2022/03/30 06:48:05;;;;;;;23.92;7.95;;;;;;;9.77;100.00;97004.44;5043189;28;20221;-66
2022/03/30 06:50:32;;;;;;;22.23;8.50;;;;;;;9.79;100.00;97005.25;5043456;28;20186;-66
2022/03/30 06:53:00;;;;;;;16.50;7.43;;;;;;;9.83;100.00;97004.19;5043066;28;20092;-66
2022/03/30 06:55:26;;;;;;;29.98;8.10;;;;;;;9.81;100.00;97000.78;5042687;28;20037;-66
2022/03/30 06:57:51;;;;;;;16.00;7.20;;;;;;;9.81;100.00;97000.78;5043320;28;20066;-66
2022/03/30 07:00:17;;;;;;;26.58;10.50;;;;;;;9.78;100.00;96995.66;5043043;28;20017;-66
2022/03/30 07:02:44;;;;;;;30.67;10.57;;;;;;;9.76;100.00;96997.50;5043015;28;20225;-66
2022/03/30 07:05:10;;;;;;;30.70;11.02;;;;;;;9.74;100.00;96999.31;5058936;28;20028;-66
2022/03/30 07:10:23;;;;;;;27.90;11.52;;;;;;;9.77;100.00;96993.94;5053210;28;20020;-66
2022/03/30 07:12:50;;;;;;;30.20;12.13;;;;;;;9.75;100.00;96988.75;5052322;28;20016;-66
2022/03/30 07:15:17;;;;;;;24.52;12.02;;;;;;;9.75;100.00;96991.38;5053481;28;20021;-66
2022/03/30 07:17:44;;;;;;;25.52;12.35;;;;;;;9.73;100.00;96987.09;5051856;28;20017;-66
2022/03/30 07:20:10;;;;;;;23.55;10.38;;;;;;;9.72;100.00;96990.66;5059524;28;20025;-66
2022/03/30 07:22:36;;;;;;;24.63;12.20;;;;;;;9.82;100.00;96995.47;5062741;28;20063;-66
2022/03/30 07:25:01;;;;;;;36.30;11.45;;;;;;;9.77;100.00;96999.19;5059287;28;20016;-66
2022/03/30 07:27:27;;;;;;;32.08;14.13;;;;;;;9.55;100.00;96995.78;5051784;28;20080;-66
2022/03/30 07:29:52;;;;;;;37.75;16.05;;;;;;;9.41;100.00;97000.72;5052317;28;20112;-66
2022/03/30 07:32:19;;;;;;;36.95;17.42;;;;;;;9.39;100.00;96997.28;5053078;28;20053;-66
2022/03/30 07:34:45;;;;;;;45.85;17.30;;;;;;;9.36;100.00;97002.69;5052335;28;20021;-66
2022/03/30 07:37:10;;;;;;;38.00;17.65;;;;;;;9.23;100.00;97006.69;5056582;28;20047;-66
2022/03/30 07:39:36;;;;;;;39.28;16.00;;;;;;;9.10;100.00;97000.22;5056843;28;20084;-66
2022/03/30 07:42:02;;;;;;;36.53;16.45;;;;;;;9.15;100.00;97014.91;5066224;28;20028;-66
2022/03/30 07:44:27;;;;;;;35.67;14.95;;;;;;;9.14;100.00;97009.72;5066539;28;20029;-66
2022/03/30 07:46:53;;;;;;;42.67;17.63;;;;;;;9.09;99.81;97009.91;5066097;28;20325;-66
2022/03/30 07:49:19;;;;;;;38.70;17.02;;;;;;;9.03;99.65;97006.63;5066463;28;20049;-66
2022/03/30 07:51:44;;;;;;;40.58;15.68;;;;;;;9.04;99.17;97016.22;5066409;28;20048;-66
2022/03/30 07:54:10;;;;;;;37.92;17.42;;;;;;;8.96;99.14;97013.03;5066302;28;20261;-66
2022/03/30 07:56:35;;;;;;;38.65;16.42;;;;;;;8.88;100.00;97025.59;5066314;28;20216;-66
2022/03/30 07:59:01;;;;;;;39.88;16.50;;;;;;;8.82;99.63;97015.34;5065883;28;20077;-66
2022/03/30 08:01:27;;;;;;;47.45;17.85;;;;;;;8.78;99.89;97019.84;5066538;28;20354;-66
2022/03/30 08:03:52;;;;;;;46.30;19.25;;;;;;;8.78;99.29;97020.72;5066475;28;20013;-66
2022/03/30 08:06:18;;;;;;;45.53;18.42;;;;;;;8.77;99.94;97018.16;5074580;28;20062;-66
2022/03/30 08:08:43;;;;;;;37.08;16.65;;;;;;;8.68;100.00;97019.31;5068367;28;20027;-66
2022/03/30 08:11:09;;;;;;;41.22;16.83;;;;;;;8.64;100.00;97028.22;5046009;28;20029;-66
2022/03/30 08:13:35;;;;;;;46.28;18.58;;;;;;;8.68;99.94;97035.06;5055369;28;20327;-66
2022/03/30 08:16:00;;;;;;;42.60;17.48;;;;;;;8.63;100.00;97026.53;5085910;28;20130;-65
2022/03/30 08:18:26;;;;;;;50.90;18.58;;;;;;;8.63;100.00;97031.78;5086485;28;20042;-65
2022/03/30 08:23:36;;;;;;;44.90;18.48;;;;;;;8.49;100.00;97023.53;5060667;28;20079;-66
2022/03/30 08:26:02;;;;;;;40.55;17.20;;;;;;;8.57;100.00;97020.63;5050914;28;20317;-66
2022/03/30 08:28:28;;;;;;;43.03;17.35;;;;;;;8.57;100.00;97021.50;5063182;28;20052;-66
2022/03/30 08:30:54;;;;;;;48.05;17.98;;;;;;;8.59;100.00;97024.94;5045661;28;20029;-66
2022/03/30 08:33:23;;;;;;;47.47;17.20;;;;;;;8.55;100.00;97028.56;5051722;28;20047;-66
2022/03/30 08:35:50;;;;;;;44.88;17.50;;;;;;;8.60;100.00;97037.13;5065565;28;20025;-66
2022/03/30 08:38:15;;;;;;;52.83;17.70;;;;;;;8.62;100.00;97030.06;5061347;28;20026;-66
2022/03/30 08:40:41;;;;;;;44.92;18.52;;;;;;;8.63;100.00;97031.78;5065136;28;20055;-66
2022/03/30 08:43:07;;;;;;;48.65;18.52;;;;;;;8.85;100.00;97044.09;5065398;28;20013;-67
2022/03/30 08:45:32;;;;;;;39.38;17.58;;;;;;;8.87;100.00;97039.63;5064536;28;20088;-66
2022/03/30 08:47:58;;;;;;;38.05;17.75;;;;;;;8.97;100.00;97035.72;5075021;28;20023;-66
2022/03/30 08:50:23;;;;;;;40.67;18.27;;;;;;;9.04;99.52;97037.19;5067536;28;20029;-66
2022/03/30 08:52:49;;;;;;;45.95;17.90;;;;;;;9.05;100.00;97038.94;5084834;28;20031;-66
2022/03/30 08:55:16;;;;;;;43.35;18.02;;;;;;;9.07;99.36;97043.19;5078456;28;20031;-66
2022/03/30 08:57:42;;;;;;;44.13;18.83;;;;;;;9.04;100.00;97045.06;5065098;28;20070;-66
2022/03/30 09:00:17;;;;;;;43.92;18.65;;;;;;;9.05;100.00;97041.56;5065105;28;20020;-66
2022/03/30 09:02:50;;;;;;;42.90;17.33;;;;;;;9.17;100.00;97051.59;5065054;28;20023;-66
2022/03/30 09:05:22;;;;;;;37.13;16.20;;;;;;;9.20;100.00;97059.34;5060492;28;20208;-66
2022/03/30 09:07:50;;;;;;;37.45;16.00;;;;;;;9.25;100.00;97057.38;5045073;28;20021;-66
2022/03/30 09:10:18;;;;;;;41.55;17.88;;;;;;;9.33;100.00;97056.16;5049950;28;20029;-66
2022/03/30 09:12:45;;;;;;;53.15;20.17;;;;;;;9.42;100.00;97052.31;5049732;28;20021;-66
2022/03/30 09:15:12;;;;;;;52.13;19.95;;;;;;;9.34;99.95;97057.03;5050890;28;20041;-66
2022/03/30 09:17:39;;;;;;;45.13;19.67;;;;;;;9.40;99.47;97056.78;5064346;28;20328;-66
2022/03/30 09:20:20;;;;;;;46.92;19.20;;;;;;;9.45;99.90;97060.06;5053312;28;20209;-66
2022/03/30 09:22:48;;;;;;;49.17;18.73;;;;;;;9.45;100.00;97065.31;5044737;28;20025;-66
2022/03/30 09:25:15;;;;;;;41.20;19.35;;;;;;;9.44;99.75;97067.09;5044653;28;20036;-66
2022/03/30 09:27:42;;;;;;;47.75;19.98;;;;;;;9.41;100.00;97071.63;5048220;28;20058;-66
2022/03/30 09:30:10;;;;;;;40.90;17.25;;;;;;;9.41;98.75;97079.50;5064566;28;20480;-66
2022/03/30 09:32:36;;;;;;;49.55;19.77;;;;;;;9.22;99.85;97074.13;5064194;28;20044;-66
2022/03/30 09:35:02;;;;;;;41.83;17.30;;;;;;;9.24;99.19;97072.25;5064327;28;20039;-66
2022/03/30 09:37:27;;;;;;;42.17;17.35;;;;;;;9.31;98.01;97075.53;5058618;28;20029;-66
2022/03/30 09:39:54;;;;;;;42.90;16.83;;;;;;;9.31;96.04;97072.91;5049699;28;20093;-66
2022/03/30 09:42:20;;;;;;;39.42;17.05;;;;;;;9.28;95.95;97067.75;5044344;28;20025;-66
2022/03/30 09:44:51;;;;;;;36.97;16.48;;;;;;;9.24;95.66;97066.19;5043750;28;20248;-66
2022/03/30 09:47:17;;;;;;;39.43;17.47;;;;;;;9.28;96.18;97062.50;5044509;28;20297;-66
2022/03/30 09:49:47;;;;;;;45.22;18.35;;;;;;;9.24;97.11;97066.19;5052648;28;20024;-66
2022/03/30 09:52:33;;;;;;;41.03;16.30;;;;;;;9.26;96.94;97065.19;5062283;28;20032;-66
2022/03/30 09:55:01;;;;;;;32.88;15.45;;;;;;;9.25;96.74;97071.38;5054632;28;20029;-66
2022/03/30 09:57:37;;;;;;;36.40;15.80;;;;;;;9.23;96.42;97070.56;5057588;28;20031;-66
2022/03/30 10:00:06;;;;;;;37.13;16.23;;;;;;;9.26;96.03;97066.94;5063970;28;20044;-66
2022/03/30 10:02:46;;;;;;;37.25;16.02;;;;;;;9.35;95.49;97070.09;5063887;28;20032;-66
2022/03/30 10:05:14;;;;;;;34.00;15.35;;;;;;;9.12;98.01;97061.41;5063895;28;20021;-66
2022/03/30 10:07:40;;;;;;;38.88;16.17;;;;;;;9.21;98.47;97067.13;5063777;28;20025;-66
2022/03/30 10:10:08;;;;;;;33.42;15.38;;;;;;;9.28;96.19;97058.13;5063226;28;20020;-66
2022/03/30 10:12:34;;;;;;;33.65;14.55;;;;;;;9.33;95.95;97060.56;5058046;28;20025;-66
2022/03/30 10:14:59;;;;;;;37.30;14.63;;;;;;;9.42;96.86;97065.44;5058263;28;20092;-66
2022/03/30 10:17:27;;;;;;;31.85;14.73;;;;;;;9.41;98.36;97069.84;5049664;28;20307;-66
2022/03/30 10:19:55;;;;;;;29.60;13.50;;;;;;;9.39;95.62;97060.31;5053773;28;20104;-66
2022/03/30 10:22:55;;;;;;;34.03;13.68;;;;;;;9.39;95.54;97055.06;5052198;28;20344;-66
2022/03/30 10:25:48;;;;;;;28.05;14.05;;;;;;;9.38;95.58;97061.22;5053174;28;20093;-66
2022/03/30 10:28:31;;;;;;;32.90;13.90;;;;;;;9.40;95.46;97067.28;5053673;28;20025;-66
2022/03/30 10:30:57;;;;;;;31.92;13.48;;;;;;;9.48;94.70;97065.19;5054032;28;20213;-66
2022/03/30 10:33:49;;;;;;;33.65;12.38;;;;;;;9.49;94.79;97062.50;5045839;28;20041;-66
2022/03/30 10:36:25;;;;;;;26.23;12.02;;;;;;;9.50;94.29;97066.00;5042711;28;20033;-66
2022/03/30 10:39:14;;;;;;;32.65;14.40;;;;;;;9.40;96.29;97067.28;5043296;28;20088;-66
2022/03/30 10:42:03;;;;;;;28.70;12.90;;;;;;;9.53;94.00;97073.75;5043319;28;20025;-66
2022/03/30 10:44:46;;;;;;;33.65;12.68;;;;;;;9.40;94.47;97073.38;5043159;28;20025;-66
2022/03/30 10:47:15;;;;;;;28.98;12.23;;;;;;;9.49;94.63;97072.19;5050458;28;20033;-66
2022/03/30 10:49:46;;;;;;;26.85;12.70;;;;;;;9.63;93.80;97068.09;5050516;28;20029;-66
2022/03/30 10:52:35;;;;;;;30.40;13.23;;;;;;;9.59;95.15;97068.25;5046383;28;20017;-66
2022/03/30 10:55:13;;;;;;;30.40;14.07;;;;;;;9.47;94.95;97058.25;5043371;28;20255;-66
2022/03/30 10:57:58;;;;;;;23.00;11.60;;;;;;;9.59;94.57;97060.38;5061785;28;20057;-66
2022/03/30 11:00:28;;;;;;;29.05;13.10;;;;;;;9.46;95.68;97059.16;5063290;28;20017;-66
2022/03/30 11:03:13;;;;;;;28.58;11.98;;;;;;;9.69;95.58;97057.31;5059806;28;20193;-66
2022/03/30 11:05:43;;;;;;;26.77;11.35;;;;;;;9.69;94.57;97056.47;5043347;28;20025;-66
2022/03/30 11:08:33;;;;;;;23.63;11.85;;;;;;;9.63;96.62;97057.56;5043013;28;20025;-66
2022/03/30 11:11:04;;;;;;;35.70;13.57;;;;;;;9.67;96.61;97050.41;5042537;28;20317;-66
2022/03/30 11:13:29;;;;;;;31.75;13.77;;;;;;;9.81;94.80;97048.09;5042836;28;20028;-66
2022/03/30 11:16:00;;;;;;;28.40;12.45;;;;;;;9.86;94.19;97046.09;5042528;28;20225;-66
2022/03/30 11:18:31;;;;;;;25.98;12.13;;;;;;;9.87;94.16;97042.59;5043147;28;20026;-66
2022/03/30 11:21:08;;;;;;;25.50;12.13;;;;;;;9.74;95.47;97046.59;5042873;28;20030;-66
2022/03/30 11:23:38;;;;;;;29.30;12.65;;;;;;;9.60;95.51;97041.94;5043212;28;20033;-66
2022/03/30 11:26:03;;;;;;;24.55;11.63;;;;;;;9.54;95.81;97044.81;5057104;28;20343;-66
2022/03/30 11:28:37;;;;;;;26.05;11.68;;;;;;;9.62;94.17;97045.34;5062602;28;20024;-66
2022/03/30 11:31:05;;;;;;;28.33;13.32;;;;;;;9.47;95.21;97037.22;5062778;28;20020;-66
2022/03/30 11:33:34;;;;;;;24.10;11.15;;;;;;;9.63;93.95;97030.44;5063640;28;20273;-68
2022/03/30 11:36:02;;;;;;;29.58;13.25;;;;;;;9.68;93.27;97031.13;5063536;28;20025;-66